Time;durP1;ratioP1;P1;durP2;ratioP2;P2;SDS_P1;SDS_P2;PMS_P1;PMS_P2;Temp;Humidity;BMP_temperature;BMP_pressure;BME280_temperature;BME280_humidity;BME280_pressure;Samples;Min_cycle;Max_cycle;Signal;HPM_P1;HPM_P2
2023/08/26 00:00:47;;;;;;;0.10;0.10;;;;;;;15.38;100.00;100811.41;5116058;28;20053;-49
2023/08/26 00:03:13;;;;;;;0.10;0.10;;;;;;;15.35;100.00;100811.41;5114909;28;20027;-49
2023/08/26 00:05:39;;;;;;;0.10;0.10;;;;;;;15.32;100.00;100808.75;5115955;28;20019;-48
2023/08/26 00:08:05;;;;;;;0.10;0.10;;;;;;;15.25;100.00;100815.63;5115873;28;20031;-47
2023/08/26 00:10:30;;;;;;;0.10;0.10;;;;;;;15.17;100.00;100821.59;5114694;28;20486;-47
2023/08/26 00:12:56;;;;;;;0.10;0.10;;;;;;;15.14;100.00;100818.13;5114671;28;20027;-51
2023/08/26 00:15:22;;;;;;;0.10;0.10;;;;;;;15.07;100.00;100821.50;5115078;28;20031;-49
2023/08/26 00:17:47;;;;;;;0.10;0.10;;;;;;;15.02;100.00;100823.16;5114936;28;20042;-49
2023/08/26 00:20:13;;;;;;;0.10;0.10;;;;;;;14.93;100.00;100815.28;5115109;28;20024;-50
2023/08/26 00:22:38;;;;;;;0.10;0.10;;;;;;;14.94;100.00;100814.44;5115533;28;20471;-50
2023/08/26 00:25:05;;;;;;;0.10;0.10;;;;;;;14.86;100.00;100822.13;5114728;28;20028;-49
2023/08/26 00:27:30;;;;;;;0.10;0.10;;;;;;;14.82;100.00;100813.44;5115004;28;20046;-50
2023/08/26 00:29:56;;;;;;;0.10;0.10;;;;;;;14.75;100.00;100819.41;5115507;28;20471;-50
2023/08/26 00:32:21;;;;;;;0.10;0.10;;;;;;;14.72;100.00;100818.47;5114475;28;20024;-51
2023/08/26 00:34:46;;;;;;;0.10;0.10;;;;;;;14.65;100.00;100820.13;5115229;28;20028;-50
2023/08/26 00:37:12;;;;;;;0.10;0.10;;;;;;;14.59;100.00;100818.31;5114765;28;20043;-48
2023/08/26 00:39:37;;;;;;;0.10;0.10;;;;;;;14.55;100.00;100810.47;5114381;28;20028;-51
2023/08/26 00:42:03;;;;;;;0.10;0.10;;;;;;;14.52;100.00;100815.63;5115001;28;20035;-46
2023/08/26 00:44:28;;;;;;;0.10;0.10;;;;;;;14.51;100.00;100819.06;5114940;28;20019;-47
2023/08/26 00:46:55;;;;;;;0.10;0.10;;;;;;;14.48;100.00;100820.75;5114395;28;20057;-50
2023/08/26 00:49:22;;;;;;;0.10;0.10;;;;;;;14.44;100.00;100816.38;5114825;28;20028;-50
2023/08/26 00:51:48;;;;;;;0.10;0.10;;;;;;;14.43;100.00;100817.22;5114200;28;20474;-49
2023/08/26 00:54:14;;;;;;;0.10;0.10;;;;;;;14.40;100.00;100817.19;5114474;28;20085;-50
2023/08/26 00:56:39;;;;;;;0.10;0.10;;;;;;;14.36;100.00;100824.91;5114715;28;20062;-49
2023/08/26 00:59:04;;;;;;;0.10;0.10;;;;;;;14.29;100.00;100818.78;5114179;28;20057;-49
2023/08/26 01:01:32;;;;;;;0.10;0.10;;;;;;;14.26;100.00;100823.94;5114375;28;20055;-50
2023/08/26 01:03:57;;;;;;;0.10;0.10;;;;;;;14.22;100.00;100816.97;5114792;28;20024;-49
2023/08/26 01:06:22;;;;;;;0.10;0.10;;;;;;;14.19;100.00;100824.69;5113664;28;20024;-49
2023/08/26 01:08:49;;;;;;;0.10;0.10;;;;;;;14.09;100.00;100828.88;5114387;28;20378;-49
2023/08/26 01:11:27;;;;;;;0.10;0.10;;;;;;;13.99;100.00;100826.16;5114330;28;20023;-47
2023/08/26 01:13:59;;;;;;;0.10;0.10;;;;;;;13.88;100.00;100826.81;5113940;28;20028;-50
2023/08/26 01:16:24;;;;;;;0.10;0.10;;;;;;;13.77;100.00;100827.50;5114188;28;20072;-50
2023/08/26 01:18:51;;;;;;;0.10;0.10;;;;;;;13.69;100.00;100823.06;5114530;28;20023;-48
2023/08/26 01:21:19;;;;;;;0.10;0.10;;;;;;;13.58;100.00;100828.94;5113222;28;20377;-51
2023/08/26 01:23:45;;;;;;;0.10;0.10;;;;;;;13.52;100.00;100818.47;5114218;28;20028;-48
2023/08/26 01:26:10;;;;;;;0.10;0.10;;;;;;;13.46;100.00;100829.56;5114213;28;20366;-50
2023/08/26 01:28:36;;;;;;;0.10;0.10;;;;;;;13.32;100.00;100828.44;5113278;28;20019;-48
2023/08/26 01:31:12;;;;;;;0.10;0.10;;;;;;;13.28;100.00;100830.09;5114332;28;20032;-51
2023/08/26 01:34:02;;;;;;;0.10;0.10;;;;;;;13.25;100.00;100829.19;5114143;28;20081;-50
2023/08/26 01:36:33;;;;;;;0.17;0.17;;;;;;;13.11;100.00;100832.38;5113895;28;20020;-50
2023/08/26 01:38:58;;;;;;;0.10;0.10;;;;;;;13.08;100.00;100827.16;5113913;28;20015;-51
2023/08/26 01:41:25;;;;;;;0.10;0.10;;;;;;;13.00;100.00;100832.19;5113113;28;20030;-50
2023/08/26 01:43:51;;;;;;;0.17;0.17;;;;;;;12.93;100.00;100832.88;5113894;28;20015;-49
2023/08/26 01:46:17;;;;;;;0.13;0.13;;;;;;;12.87;100.00;100825.00;5113700;28;20028;-49
2023/08/26 01:48:42;;;;;;;0.10;0.10;;;;;;;12.81;100.00;100828.34;5113157;28;20118;-48
2023/08/26 01:51:08;;;;;;;0.10;0.10;;;;;;;12.81;100.00;100828.34;5113714;28;20030;-50
2023/08/26 01:53:33;;;;;;;0.20;0.20;;;;;;;12.75;100.00;100835.13;5113492;28;20047;-49
2023/08/26 01:55:58;;;;;;;0.10;0.10;;;;;;;12.70;100.00;100839.31;5112879;28;20030;-50
2023/08/26 01:58:23;;;;;;;0.10;0.10;;;;;;;12.65;100.00;100841.81;5113282;28;20032;-47
2023/08/26 02:00:49;;;;;;;0.10;0.10;;;;;;;12.62;100.00;100836.56;5113693;28;20024;-49
2023/08/26 02:03:14;;;;;;;0.10;0.10;;;;;;;12.57;100.00;100839.06;5112484;28;20035;-49
2023/08/26 02:05:39;;;;;;;0.20;0.20;;;;;;;12.52;100.00;100833.81;5113834;28;20397;-50
2023/08/26 02:08:05;;;;;;;0.10;0.10;;;;;;;12.49;100.00;100841.47;5113713;28;20491;-48
2023/08/26 02:10:30;;;;;;;0.10;0.10;;;;;;;12.46;100.00;100832.78;5112497;28;20115;-50
2023/08/26 02:12:56;;;;;;;0.20;0.20;;;;;;;12.42;100.00;100837.03;5113835;28;20032;-45
2023/08/26 02:15:21;;;;;;;0.10;0.10;;;;;;;12.36;100.00;100818.78;5113198;28;20031;-50
2023/08/26 02:17:47;;;;;;;0.20;0.20;;;;;;;12.37;100.00;100830.00;5112630;28;20360;-45
2023/08/26 02:20:12;;;;;;;0.10;0.10;;;;;;;12.31;100.00;100823.00;5113296;28;20026;-48
2023/08/26 02:22:38;;;;;;;0.20;0.20;;;;;;;12.29;100.00;100832.41;5113498;28;20378;-48
2023/08/26 02:25:04;;;;;;;0.10;0.10;;;;;;;12.27;100.00;100829.78;5112745;28;20051;-50
2023/08/26 02:27:29;;;;;;;0.10;0.10;;;;;;;12.24;100.00;100826.25;5113033;28;20048;-50
2023/08/26 02:29:54;;;;;;;0.17;0.17;;;;;;;12.19;100.00;100827.03;5113263;28;20426;-50
2023/08/26 02:32:20;;;;;;;0.20;0.20;;;;;;;12.16;100.00;100832.16;5112325;28;20065;-49
2023/08/26 02:34:45;;;;;;;0.10;0.10;;;;;;;12.15;100.00;100825.22;5113655;28;20020;-49
2023/08/26 02:37:10;;;;;;;0.20;0.20;;;;;;;12.12;100.00;100830.34;5116906;28;20114;-48
2023/08/26 02:39:36;;;;;;;0.10;0.10;;;;;;;12.08;100.00;100820.75;5117396;28;20482;-48
2023/08/26 02:42:01;;;;;;;0.10;0.10;;;;;;;12.06;100.00;100819.88;5117339;28;20031;-49
2023/08/26 02:44:26;;;;;;;0.10;0.10;;;;;;;12.03;100.00;100819.78;5116417;28;20032;-49
2023/08/26 02:46:52;;;;;;;0.10;0.10;;;;;;;12.00;100.00;100819.72;5117430;28;20088;-50
2023/08/26 02:49:17;;;;;;;0.10;0.10;;;;;;;11.99;100.00;100818.84;5116992;28;20099;-49
2023/08/26 02:51:42;;;;;;;0.10;0.10;;;;;;;11.97;100.00;100809.31;5116623;28;20023;-50
2023/08/26 02:54:08;;;;;;;0.10;0.10;;;;;;;11.95;100.00;100817.00;5117171;28;20383;-49
2023/08/26 02:56:33;;;;;;;0.10;0.10;;;;;;;11.93;100.00;100812.63;5116942;28;20399;-48
2023/08/26 02:58:58;;;;;;;0.17;0.17;;;;;;;11.93;100.00;100815.19;5116445;28;20467;-49
2023/08/26 03:01:24;;;;;;;0.17;0.17;;;;;;;11.87;100.00;100813.34;5116787;28;20028;-48
2023/08/26 03:03:49;;;;;;;0.10;0.10;;;;;;;11.84;100.00;100814.16;5116743;28;20032;-50
2023/08/26 03:06:14;;;;;;;0.10;0.10;;;;;;;11.83;100.00;100817.56;5116164;28;20496;-49
2023/08/26 03:08:40;;;;;;;0.10;0.10;;;;;;;11.82;100.00;100825.28;5117028;28;20024;-50
2023/08/26 03:11:07;;;;;;;0.10;0.10;;;;;;;11.81;100.00;100815.78;5116964;28;20028;-49
2023/08/26 03:13:33;;;;;;;0.20;0.20;;;;;;;11.79;100.00;100815.75;5115881;28;20094;-49
2023/08/26 03:16:06;;;;;;;0.20;0.20;;;;;;;11.77;100.00;100827.75;5116966;28;20472;-50
2023/08/26 03:18:31;;;;;;;0.20;0.20;;;;;;;11.73;100.00;100825.94;5116739;28;20100;-46
2023/08/26 03:21:02;;;;;;;0.10;0.10;;;;;;;11.76;100.00;100828.59;5116132;28;20409;-50
2023/08/26 03:23:27;;;;;;;0.10;0.10;;;;;;;11.73;100.00;100825.06;5116569;28;20024;-49
2023/08/26 03:25:55;;;;;;;0.20;0.20;;;;;;;11.69;100.00;100831.84;5116763;28;20020;-50
2023/08/26 03:28:20;;;;;;;0.20;0.20;;;;;;;11.69;100.00;100829.28;5115580;28;20111;-50
2023/08/26 03:30:45;;;;;;;0.17;0.17;;;;;;;11.70;100.00;100828.44;5116463;28;20019;-49
2023/08/26 03:33:11;;;;;;;0.20;0.20;;;;;;;11.65;100.00;100830.03;5116682;27;20371;-50
2023/08/26 03:35:38;;;;;;;0.20;0.20;;;;;;;11.67;100.00;100836.09;5115271;28;20474;-51
2023/08/26 03:38:06;;;;;;;0.20;0.20;;;;;;;11.64;100.00;100830.88;5116518;28;20051;-49
2023/08/26 03:40:32;;;;;;;0.10;0.10;;;;;;;11.59;100.00;100828.16;5115222;28;20020;-47
2023/08/26 03:42:57;;;;;;;0.10;0.10;;;;;;;11.58;100.00;100826.44;5116243;28;20038;-49
2023/08/26 03:45:22;;;;;;;0.20;0.20;;;;;;;11.56;100.00;100837.56;5115835;28;20054;-49
2023/08/26 03:47:48;;;;;;;0.20;0.20;;;;;;;11.52;100.00;100834.88;5115418;28;20451;-48
2023/08/26 03:50:13;;;;;;;0.20;0.20;;;;;;;11.51;100.00;100838.28;5116003;28;20026;-49
2023/08/26 03:52:38;;;;;;;0.13;0.13;;;;;;;11.51;100.00;100833.13;5116131;28;20016;-49
2023/08/26 03:55:04;;;;;;;0.20;0.20;;;;;;;11.48;100.00;100835.63;5115037;28;20044;-50
2023/08/26 03:57:30;;;;;;;0.13;0.13;;;;;;;11.42;100.00;100835.47;5115700;28;20023;-50
2023/08/26 03:59:55;;;;;;;0.20;0.20;;;;;;;11.46;100.00;100852.78;5116046;28;20028;-48
2023/08/26 04:02:21;;;;;;;0.20;0.20;;;;;;;11.43;100.00;100849.28;5114821;28;20035;-48
2023/08/26 04:04:46;;;;;;;0.13;0.13;;;;;;;11.39;100.00;100845.72;5116008;28;20518;-49
2023/08/26 04:07:11;;;;;;;0.17;0.17;;;;;;;11.45;100.00;100843.31;5115496;28;20031;-47
2023/08/26 04:09:37;;;;;;;0.10;0.10;;;;;;;11.40;100.00;100839.75;5115111;28;20024;-49
2023/08/26 04:12:02;;;;;;;0.20;0.20;;;;;;;11.36;100.00;100846.53;5115720;28;20031;-50
2023/08/26 04:14:28;;;;;;;0.10;0.10;;;;;;;11.35;100.00;100855.09;5115278;28;20068;-49
2023/08/26 04:16:54;;;;;;;0.20;0.20;;;;;;;11.33;100.00;100849.00;5115029;28;20348;-50
2023/08/26 04:19:19;;;;;;;0.20;0.20;;;;;;;11.30;100.00;100850.66;5115533;28;20023;-49
2023/08/26 04:21:44;;;;;;;0.10;0.10;;;;;;;11.30;100.00;100856.69;5115716;28;20065;-51
2023/08/26 04:24:10;;;;;;;0.10;0.10;;;;;;;11.29;100.00;100854.06;5114676;28;20019;-47
2023/08/26 04:26:35;;;;;;;0.10;0.10;;;;;;;11.28;100.00;100862.63;5115145;28;20052;-48
2023/08/26 04:29:00;;;;;;;0.20;0.20;;;;;;;11.29;100.00;100859.22;5115254;28;20096;-50
2023/08/26 04:31:26;;;;;;;0.20;0.20;;;;;;;11.30;100.00;100866.13;5114462;28;20020;-50
2023/08/26 04:33:52;;;;;;;0.20;0.20;;;;;;;11.26;100.00;100866.84;5115392;28;20027;-50
2023/08/26 04:36:17;;;;;;;0.10;0.10;;;;;;;11.25;100.00;100868.56;5114989;28;20035;-47
2023/08/26 04:38:43;;;;;;;0.10;0.10;;;;;;;11.23;100.00;100864.22;5114303;28;20015;-47
2023/08/26 04:41:09;;;;;;;0.10;0.10;;;;;;;11.22;100.00;100876.25;5115092;28;20024;-48
2023/08/26 04:43:35;;;;;;;0.20;0.20;;;;;;;11.20;100.00;100877.91;5114872;28;20032;-45
2023/08/26 04:46:00;;;;;;;0.10;0.10;;;;;;;11.15;100.00;100875.19;5114303;28;20028;-49
2023/08/26 04:48:28;;;;;;;0.15;0.15;;;;;;;11.15;100.00;100877.75;5114828;28;20020;-44
2023/08/26 04:50:54;;;;;;;0.10;0.10;;;;;;;11.18;100.00;100884.72;5114129;28;20482;-46
2023/08/26 04:53:19;;;;;;;0.10;0.10;;;;;;;11.17;100.00;100880.41;5114460;28;20032;-44
2023/08/26 04:55:48;;;;;;;0.20;0.20;;;;;;;11.17;100.00;100880.41;5114735;28;20387;-48
2023/08/26 04:58:14;;;;;;;0.10;0.10;;;;;;;11.14;100.00;100891.50;5113325;28;20070;-44
2023/08/26 05:00:43;;;;;;;0.20;0.20;;;;;;;11.11;100.00;100891.41;5114982;28;20031;-45
2023/08/26 05:03:09;;;;;;;0.20;0.20;;;;;;;11.10;100.00;100891.38;5114972;28;20024;-49
2023/08/26 05:05:34;;;;;;;0.15;0.15;;;;;;;11.09;100.00;100895.66;5113786;28;20031;-49
2023/08/26 05:08:00;;;;;;;0.10;0.10;;;;;;;11.10;100.00;100899.09;5114736;28;20024;-45
2023/08/26 05:10:25;;;;;;;0.13;0.13;;;;;;;11.12;100.00;100907.78;5114319;28;20027;-50
2023/08/26 05:12:50;;;;;;;0.15;0.15;;;;;;;11.11;100.00;100901.72;5113656;28;20045;-50
2023/08/26 05:15:16;;;;;;;0.20;0.20;;;;;;;11.16;100.00;100905.31;5114262;28;20020;-49
2023/08/26 05:17:41;;;;;;;0.13;0.13;;;;;;;11.13;100.00;100905.25;5114608;28;20023;-50
2023/08/26 05:20:07;;;;;;;0.20;0.20;;;;;;;11.18;100.00;100897.59;5113787;28;20031;-47
2023/08/26 05:22:32;;;;;;;0.20;0.20;;;;;;;11.22;100.00;100908.91;5114181;28;20026;-47
2023/08/26 05:24:57;;;;;;;0.13;0.13;;;;;;;11.25;100.00;100896.09;5114152;28;20471;-46
2023/08/26 05:27:23;;;;;;;0.20;0.20;;;;;;;11.27;100.00;100902.16;5112830;28;20063;-45
2023/08/26 05:29:48;;;;;;;0.10;0.10;;;;;;;11.29;100.00;100897.94;5114125;28;20070;-49
2023/08/26 05:32:14;;;;;;;0.10;0.10;;;;;;;11.33;100.00;100894.59;5113986;28;20055;-50
2023/08/26 05:34:39;;;;;;;0.20;0.20;;;;;;;11.36;100.00;100905.88;5113577;28;20103;-48
2023/08/26 05:37:05;;;;;;;0.10;0.10;;;;;;;11.41;100.00;100897.38;5114094;28;20495;-45
2023/08/26 05:39:30;;;;;;;0.20;0.20;;;;;;;11.45;100.00;100902.69;5113746;28;20024;-45
2023/08/26 05:41:56;;;;;;;0.20;0.20;;;;;;;11.49;100.00;100909.66;5113177;28;20030;-49
2023/08/26 05:44:21;;;;;;;0.20;0.20;;;;;;;11.52;100.00;100899.41;5113628;28;20417;-50
2023/08/26 05:46:46;;;;;;;0.10;0.10;;;;;;;11.57;100.00;100906.38;5114075;28;20372;-50
2023/08/26 05:49:11;;;;;;;0.20;0.20;;;;;;;11.60;100.00;100896.16;5112784;28;20477;-45
2023/08/26 05:51:37;;;;;;;0.20;0.20;;;;;;;11.64;100.00;100892.81;5113762;28;20081;-48
2023/08/26 05:54:03;;;;;;;0.20;0.20;;;;;;;11.67;100.00;100895.47;5113123;28;20092;-49
2023/08/26 05:56:28;;;;;;;0.20;0.20;;;;;;;11.73;100.00;100887.88;5113078;28;20031;-49
2023/08/26 05:58:53;;;;;;;0.10;0.10;;;;;;;11.81;100.00;100896.72;5114147;27;20015;-47
2023/08/26 06:01:19;;;;;;;0.15;0.15;;;;;;;11.86;100.00;100889.97;5112709;28;20028;-50
2023/08/26 06:03:44;;;;;;;0.10;0.10;;;;;;;11.91;100.00;100891.78;5113745;28;20027;-46
2023/08/26 06:06:09;;;;;;;0.10;0.10;;;;;;;11.95;100.00;100885.84;5113620;28;20382;-45
2023/08/26 06:08:34;;;;;;;0.10;0.10;;;;;;;12.02;100.00;100885.22;5112516;28;20490;-49
2023/08/26 06:11:00;;;;;;;0.10;0.10;;;;;;;12.07;100.00;100888.78;5112756;28;20024;-51
2023/08/26 06:13:25;;;;;;;0.20;0.20;;;;;;;12.11;100.00;100882.84;5113057;28;20394;-49
2023/08/26 06:15:57;;;;;;;0.10;0.10;;;;;;;12.20;100.00;100889.94;5112844;28;20038;-49
2023/08/26 06:18:23;;;;;;;0.17;0.17;;;;;;;12.26;100.00;100889.19;5113337;28;20035;-50
2023/08/26 06:20:52;;;;;;;0.10;0.10;;;;;;;12.33;100.00;100891.06;5113391;28;20024;-49
2023/08/26 06:23:19;;;;;;;0.10;0.10;;;;;;;12.38;100.00;100884.28;5112461;28;20027;-51
2023/08/26 06:25:52;;;;;;;0.10;0.10;;;;;;;12.49;100.00;100887.16;5113274;28;20023;-49
2023/08/26 06:28:17;;;;;;;0.20;0.20;;;;;;;12.57;100.00;100890.75;5113197;28;20183;-50
2023/08/26 06:30:43;;;;;;;0.13;0.13;;;;;;;12.63;100.00;100884.88;5112770;28;20466;-50
2023/08/26 06:33:09;;;;;;;0.10;0.10;;;;;;;12.69;100.00;100892.72;5113341;28;20045;-50
2023/08/26 06:35:34;;;;;;;0.13;0.13;;;;;;;12.72;100.00;100892.81;5113064;28;20028;-50
2023/08/26 06:38:00;;;;;;;0.10;0.10;;;;;;;12.83;100.00;100886.16;5112288;28;20035;-50
2023/08/26 06:40:25;;;;;;;0.10;0.10;;;;;;;12.91;100.00;100894.09;5112747;28;20035;-46
2023/08/26 06:42:50;;;;;;;0.10;0.10;;;;;;;12.98;100.00;100892.50;5113291;28;20031;-47
2023/08/26 06:45:16;;;;;;;0.20;0.20;;;;;;;13.03;100.00;100890.88;5112292;28;20111;-44
2023/08/26 06:47:41;;;;;;;0.10;0.10;;;;;;;13.11;100.00;100897.06;5113252;28;20016;-45
2023/08/26 06:50:08;;;;;;;0.10;0.10;;;;;;;13.20;100.00;100885.16;5113172;28;20056;-48
2023/08/26 06:52:33;;;;;;;0.15;0.15;;;;;;;13.24;100.00;100874.03;5112092;28;20080;-48
2023/08/26 06:54:59;;;;;;;0.10;0.10;;;;;;;13.28;100.00;100878.41;5112739;28;20044;-47
2023/08/26 06:57:24;;;;;;;0.10;0.10;;;;;;;13.38;100.00;100882.09;5112125;28;20035;-46
2023/08/26 06:59:49;;;;;;;0.10;0.10;;;;;;;13.50;100.00;100879.72;5113003;28;20027;-45
2023/08/26 07:02:15;;;;;;;0.10;0.10;;;;;;;13.55;100.00;100874.63;5112776;28;20028;-46
2023/08/26 07:04:43;;;;;;;0.10;0.10;;;;;;;13.64;100.00;100882.53;5112126;28;20024;-49
2023/08/26 07:07:11;;;;;;;0.15;0.15;;;;;;;13.75;100.00;100883.63;5113038;28;20020;-45
2023/08/26 07:09:37;;;;;;;0.10;0.10;;;;;;;13.88;100.00;100892.47;5112768;28;20023;-50
2023/08/26 07:12:02;;;;;;;0.17;0.17;;;;;;;13.95;100.00;100888.25;5112159;28;20043;-49
2023/08/26 07:14:28;;;;;;;0.10;0.10;;;;;;;14.06;100.00;100889.31;5112484;28;20027;-50
2023/08/26 07:16:53;;;;;;;0.10;0.10;;;;;;;14.12;100.00;100889.38;5112848;28;20032;-50
2023/08/26 07:19:18;;;;;;;0.10;0.10;;;;;;;14.22;100.00;100892.13;5111896;28;20047;-50
2023/08/26 07:21:44;;;;;;;0.10;0.10;;;;;;;14.42;100.00;100898.50;5114844;28;20073;-49
2023/08/26 07:24:09;;;;;;;0.10;0.10;;;;;;;14.42;100.00;100890.72;5116550;28;20030;-46
2023/08/26 07:26:34;;;;;;;0.10;0.10;;;;;;;14.54;100.00;100891.72;5115403;28;20111;-46
2023/08/26 07:29:00;;;;;;;0.10;0.10;;;;;;;14.65;100.00;100892.78;5116394;28;20475;-46
2023/08/26 07:31:25;;;;;;;0.10;0.10;;;;;;;14.72;100.00;100892.00;5116379;28;20033;-49
2023/08/26 07:33:50;;;;;;;0.10;0.10;;;;;;;14.80;100.00;100900.75;5115747;28;20028;-48
2023/08/26 07:36:16;;;;;;;0.10;0.10;;;;;;;14.81;100.00;100906.84;5116028;28;20035;-49
2023/08/26 07:38:41;;;;;;;0.10;0.10;;;;;;;14.84;100.00;100900.81;5116376;28;20020;-43
2023/08/26 07:41:06;;;;;;;0.10;0.10;;;;;;;14.88;100.00;100907.78;5115820;28;20463;-46
2023/08/26 07:43:33;;;;;;;0.17;0.17;;;;;;;15.08;100.00;100905.41;5115896;28;20030;-48
2023/08/26 07:45:59;;;;;;;0.10;0.10;;;;;;;15.11;100.00;100911.53;5116192;28;20383;-47
2023/08/26 07:48:24;;;;;;;0.15;0.15;;;;;;;15.22;100.00;100915.97;5115162;28;20016;-44
2023/08/26 07:50:49;;;;;;;0.10;0.10;;;;;;;15.30;100.00;100907.41;5116109;28;20023;-47
2023/08/26 07:53:15;;;;;;;0.10;0.10;;;;;;;15.50;100.00;100908.50;5115541;28;20050;-48
2023/08/26 07:55:40;;;;;;;0.10;0.10;;;;;;;15.54;100.00;100905.06;5115434;28;20027;-51
2023/08/26 07:58:05;;;;;;;0.10;0.10;;;;;;;15.56;100.00;100911.16;5116169;27;20379;-49
2023/08/26 08:00:31;;;;;;;0.10;0.10;;;;;;;15.72;100.00;100912.16;5115564;28;20971;-50
2023/08/26 08:02:56;;;;;;;0.10;0.10;;;;;;;15.86;100.00;100920.13;5115270;28;20031;-45
2023/08/26 08:05:21;;;;;;;0.10;0.10;;;;;;;16.06;100.00;100913.38;5115740;28;20019;-51
2023/08/26 08:07:47;;;;;;;0.10;0.10;;;;;;;16.04;100.00;100914.22;5115002;28;20028;-49
2023/08/26 08:10:12;;;;;;;0.10;0.10;;;;;;;16.08;100.00;100913.38;5115367;28;20031;-50
2023/08/26 08:12:38;;;;;;;0.10;0.10;;;;;;;16.22;100.00;100918.69;5115888;28;20020;-51
2023/08/26 08:15:03;;;;;;;0.10;0.10;;;;;;;16.20;100.00;100907.38;5115123;28;20275;-47
2023/08/26 08:17:30;;;;;;;0.10;0.10;;;;;;;16.34;100.00;100899.69;5115257;28;20027;-50
2023/08/26 08:19:56;;;;;;;0.10;0.10;;;;;;;16.34;100.00;100904.91;5115704;28;20065;-49
2023/08/26 08:22:35;;;;;;;0.10;0.10;;;;;;;16.43;100.00;100911.00;5114607;27;20028;-46
2023/08/26 08:25:01;;;;;;;0.10;0.10;;;;;;;16.49;100.00;100909.31;5115751;28;20019;-50
2023/08/26 08:27:27;;;;;;;0.10;0.10;;;;;;;16.66;100.00;100901.63;5115122;28;20466;-50
2023/08/26 08:29:52;;;;;;;0.10;0.10;;;;;;;16.70;100.00;100904.22;5114731;28;20034;-47
2023/08/26 08:32:17;;;;;;;0.10;0.10;;;;;;;16.72;100.00;100897.31;5114245;28;20015;-50
2023/08/26 08:34:42;;;;;;;0.10;0.10;;;;;;;16.76;100.00;100896.47;5115016;28;20107;-45
2023/08/26 08:37:08;;;;;;;0.10;0.10;;;;;;;16.86;100.00;100894.78;5114352;28;20038;-51
2023/08/26 08:39:33;;;;;;;0.10;0.10;;;;;;;17.06;100.00;100897.47;5115028;28;20024;-48
2023/08/26 08:42:03;;;;;;;0.10;0.10;;;;;;;17.14;100.00;100900.13;5115297;27;20351;-50
2023/08/26 08:44:32;;;;;;;0.10;0.10;;;;;;;17.24;100.00;100899.28;5114048;28;20382;-49
2023/08/26 08:46:58;;;;;;;0.10;0.10;;;;;;;17.33;100.00;100898.44;5115135;28;20020;-50
2023/08/26 08:49:23;;;;;;;0.10;0.10;;;;;;;17.39;100.00;100901.06;5114718;28;20467;-50
2023/08/26 08:51:49;;;;;;;0.10;0.10;;;;;;;17.40;100.00;100908.03;5114026;28;20096;-50
2023/08/26 08:54:15;;;;;;;0.10;0.10;;;;;;;17.40;100.00;100907.13;5114419;28;20467;-47
2023/08/26 08:56:42;;;;;;;0.00;0.00;;;;;;;17.43;100.00;100907.16;5114764;28;20034;-48
2023/08/26 08:59:11;;;;;;;0.00;0.00;;;;;;;17.67;100.00;100901.09;5113926;28;20531;-49
2023/08/26 09:01:36;;;;;;;0.10;0.10;;;;;;;17.82;100.00;100921.09;5114294;28;20535;-49
2023/08/26 09:04:04;;;;;;;0.10;0.10;;;;;;;17.90;98.96;100923.72;5113860;27;20106;-49
2023/08/26 09:06:29;;;;;;;0.03;0.03;;;;;;;17.91;98.28;100920.25;5114560;28;20104;-50
2023/08/26 09:08:59;;;;;;;0.10;0.10;;;;;;;17.97;97.89;100919.41;5114740;28;20043;-50
2023/08/26 09:11:25;;;;;;;0.10;0.10;;;;;;;18.17;99.00;100927.22;5113748;28;20038;-51
2023/08/26 09:13:50;;;;;;;0.10;0.10;;;;;;;18.38;97.15;100927.19;5114709;28;20019;-51
2023/08/26 09:16:27;;;;;;;0.00;0.00;;;;;;;18.61;97.20;100931.50;5114047;28;20043;-51
2023/08/26 09:18:56;;;;;;;0.00;0.00;;;;;;;18.88;94.04;100927.09;5113722;28;20413;-48
2023/08/26 09:21:21;;;;;;;0.00;0.00;;;;;;;18.93;91.20;100933.19;5114266;27;20028;-51
2023/08/26 09:23:49;;;;;;;0.05;0.05;;;;;;;18.91;91.03;100938.44;5114280;28;20041;-47
2023/08/26 09:26:16;;;;;;;0.00;0.00;;;;;;;18.79;89.86;100933.19;5113326;28;20027;-49
2023/08/26 09:28:50;;;;;;;0.10;0.10;;;;;;;18.62;88.98;100941.09;5114403;28;20083;-50
2023/08/26 09:31:16;;;;;;;0.00;0.00;;;;;;;18.41;89.92;100948.06;5113744;28;20035;-49
2023/08/26 09:33:42;;;;;;;0.10;0.10;;;;;;;18.53;90.09;100941.09;5113559;28;20032;-48
2023/08/26 09:36:08;;;;;;;0.00;0.00;;;;;;;18.41;89.63;100942.84;5113004;28;20033;-46
2023/08/26 09:38:50;;;;;;;0.10;0.10;;;;;;;18.48;91.98;100942.84;5112810;28;20020;-46
2023/08/26 09:41:23;;;;;;;0.08;0.08;;;;;;;18.52;90.23;100941.97;5112465;28;20035;-51
2023/08/26 09:43:48;;;;;;;0.10;0.10;;;;;;;18.58;90.74;100939.34;5113014;28;20028;-50
2023/08/26 09:46:21;;;;;;;0.10;0.10;;;;;;;18.57;90.64;100954.13;5112618;28;20077;-51
2023/08/26 09:48:49;;;;;;;0.00;0.00;;;;;;;18.74;90.20;100945.41;5113513;28;20114;-50
2023/08/26 09:51:26;;;;;;;0.00;0.00;;;;;;;18.68;88.70;100945.41;5113035;28;20028;-49
2023/08/26 09:53:53;;;;;;;0.00;0.00;;;;;;;18.59;90.60;100952.41;5112301;28;20123;-49
2023/08/26 09:56:19;;;;;;;;;;;;;;;18.81;90.01;100959.31;5112823;28;20472;-49
2023/08/26 09:58:45;;;;;;;0.10;0.10;;;;;;;19.28;87.10;100957.44;5113321;28;19969;-51
2023/08/26 10:01:11;;;;;;;0.00;0.00;;;;;;;19.22;84.11;100953.09;5112461;28;20467;-46
2023/08/26 10:03:39;;;;;;;0.03;0.03;;;;;;;19.36;88.29;100951.28;5112665;28;20093;-46
2023/08/26 10:06:06;;;;;;;0.10;0.10;;;;;;;19.49;83.59;100949.47;5113003;28;20024;-49
2023/08/26 10:08:35;;;;;;;0.10;0.10;;;;;;;19.56;81.78;100958.13;5111544;28;20027;-51
2023/08/26 10:11:03;;;;;;;0.00;0.00;;;;;;;20.00;80.98;100958.75;5113059;28;20024;-51
2023/08/26 10:13:28;;;;;;;0.00;0.00;;;;;;;20.54;75.98;100951.31;5112443;28;20024;-51
2023/08/26 10:15:57;;;;;;;0.00;0.00;;;;;;;20.55;74.52;100957.41;5112110;28;20030;-51
2023/08/26 10:18:47;;;;;;;0.00;0.00;;;;;;;20.75;75.94;100954.59;5112332;28;20077;-48
2023/08/26 10:21:13;;;;;;;0.00;0.00;;;;;;;20.29;74.65;100965.50;5112384;28;20024;-50
2023/08/26 10:23:39;;;;;;;0.00;0.00;;;;;;;19.88;76.16;100960.59;5112023;28;20134;-50
2023/08/26 10:26:06;;;;;;;0.00;0.00;;;;;;;19.82;76.96;100964.97;5112848;28;20024;-51
2023/08/26 10:28:33;;;;;;;0.00;0.00;;;;;;;19.90;76.98;100968.44;5111492;28;20035;-51
2023/08/26 10:30:59;;;;;;;0.00;0.00;;;;;;;19.51;78.78;100955.56;5112619;28;20493;-50
2023/08/26 10:33:25;;;;;;;0.00;0.00;;;;;;;19.18;81.09;100960.06;5112146;28;20024;-51
2023/08/26 10:36:12;;;;;;;0.00;0.00;;;;;;;18.94;84.38;100960.16;5111682;28;20019;-51
2023/08/26 10:38:39;;;;;;;0.00;0.00;;;;;;;18.62;85.12;100950.63;5112393;28;20466;-49
2023/08/26 10:41:10;;;;;;;0.00;0.00;;;;;;;18.54;87.89;100953.25;5112739;28;20023;-50
2023/08/26 10:43:35;;;;;;;0.10;0.10;;;;;;;19.08;85.19;100959.25;5111429;28;20106;-50
2023/08/26 10:46:01;;;;;;;0.10;0.10;;;;;;;19.32;84.52;100960.00;5112609;28;20110;-52
2023/08/26 10:48:27;;;;;;;0.00;0.00;;;;;;;19.59;82.34;100952.91;5112171;28;20032;-46
2023/08/26 10:50:59;;;;;;;0.00;0.00;;;;;;;19.52;82.81;100951.19;5111703;28;20030;-49
2023/08/26 10:53:25;;;;;;;0.10;0.10;;;;;;;19.34;83.46;100950.44;5111906;28;20820;-51
2023/08/26 10:55:52;;;;;;;0.08;0.08;;;;;;;19.28;84.50;100950.47;5113078;28;20064;-52
2023/08/26 10:58:41;;;;;;;0.00;0.00;;;;;;;19.51;84.22;100945.09;5115585;28;20026;-49
2023/08/26 11:01:08;;;;;;;0.00;0.00;;;;;;;19.85;78.57;100944.91;5116692;28;20020;-51
2023/08/26 11:03:37;;;;;;;0.00;0.00;;;;;;;20.61;74.73;100939.00;5116159;28;20031;-50
2023/08/26 11:06:05;;;;;;;0.10;0.10;;;;;;;21.45;76.51;100935.41;5116483;28;20019;-48
2023/08/26 11:08:31;;;;;;;0.00;0.00;;;;;;;21.69;69.10;100935.06;5115881;28;20043;-51
2023/08/26 11:10:56;;;;;;;0.00;0.00;;;;;;;21.30;69.73;100937.31;5115642;28;20781;-47
2023/08/26 11:13:22;;;;;;;0.00;0.00;;;;;;;20.78;68.62;100930.13;5115698;28;20032;-51
2023/08/26 11:15:50;;;;;;;0.00;0.00;;;;;;;21.29;69.50;100935.63;5116198;28;20020;-51